Time;durP1;ratioP1;P1;durP2;ratioP2;P2;SDS_P1;SDS_P2;PMS_P1;PMS_P2;Temp;Humidity;BMP_temperature;BMP_pressure;BME280_temperature;BME280_humidity;BME280_pressure;Samples;Min_cycle;Max_cycle;Signal;HPM_P1;HPM_P2
2023/03/05 00:01:16;;;;;;;3.28;1.65;;;5.70;99.90;;;;;;5039158;28;90851;-78
2023/03/05 00:03:44;;;;;;;8.02;2.38;;;5.70;99.90;;;;;;5040301;28;89045;-78
2023/03/05 00:06:11;;;;;;;9.10;1.60;;;5.60;99.90;;;;;;5040347;28;89918;-78
2023/03/05 00:08:38;;;;;;;4.00;1.63;;;5.60;99.90;;;;;;5040646;28;88634;-78
2023/03/05 00:11:08;;;;;;;5.75;2.22;;;5.60;99.90;;;;;;5022638;28;91007;-78
2023/03/05 00:13:37;;;;;;;8.82;1.83;;;5.60;99.90;;;;;;5040659;28;88970;-78
2023/03/05 00:16:06;;;;;;;4.53;1.60;;;5.60;99.90;;;;;;5022574;28;88695;-77
2023/03/05 00:18:33;;;;;;;4.72;1.15;;;5.60;99.90;;;;;;5022419;28;88690;-78
2023/03/05 00:21:00;;;;;;;6.05;1.45;;;5.60;99.90;;;;;;5022025;28;91232;-78
2023/03/05 00:23:27;;;;;;;7.85;1.42;;;5.50;99.90;;;;;;5040085;28;93463;-78
2023/03/05 00:25:54;;;;;;;5.03;1.27;;;5.50;99.90;;;;;;5021989;28;92380;-78
2023/03/05 00:28:21;;;;;;;4.57;1.05;;;5.60;99.90;;;;;;5022087;28;89590;-78
2023/03/05 00:30:48;;;;;;;1.75;1.15;;;5.60;99.90;;;;;;4988805;28;91300;-78
2023/03/05 00:33:15;;;;;;;3.20;1.50;;;5.60;99.90;;;;;;5005170;28;92011;-78
2023/03/05 00:35:44;;;;;;;2.72;1.10;;;5.60;99.90;;;;;;5006139;28;88676;-78
2023/03/05 00:38:12;;;;;;;5.00;1.13;;;5.50;99.90;;;;;;5021854;28;88119;-78
2023/03/05 00:40:40;;;;;;;4.95;1.67;;;5.50;99.90;;;;;;5021968;28;89610;-78
2023/03/05 00:43:07;;;;;;;3.53;1.20;;;5.50;99.90;;;;;;4988198;28;92042;-78
2023/03/05 00:45:35;;;;;;;7.65;1.42;;;5.50;99.90;;;;;;5022183;28;90826;-78
2023/03/05 00:48:03;;;;;;;3.28;1.15;;;5.50;99.90;;;;;;5005322;28;89500;-78
2023/03/05 00:50:30;;;;;;;2.03;1.35;;;5.50;99.90;;;;;;5021028;28;91002;-78
2023/03/05 00:52:57;;;;;;;5.57;1.40;;;5.50;99.90;;;;;;5021691;28;91458;-78
2023/03/05 00:55:24;;;;;;;3.25;1.00;;;5.50;99.90;;;;;;5004930;28;91506;-78
2023/03/05 00:57:51;;;;;;;5.43;1.10;;;5.50;99.90;;;;;;5021726;28;89550;-78
2023/03/05 01:00:18;;;;;;;4.07;1.58;;;5.40;99.90;;;;;;5021604;28;91492;-78
2023/03/05 01:02:45;;;;;;;1.92;0.90;;;5.40;99.90;;;;;;5004540;28;91494;-78
2023/03/05 01:05:13;;;;;;;4.43;1.38;;;5.40;99.90;;;;;;5038057;28;91338;-78
2023/03/05 01:07:41;;;;;;;3.92;1.10;;;5.30;99.90;;;;;;5021405;28;88889;-78
2023/03/05 01:10:09;;;;;;;3.95;1.40;;;5.30;99.90;;;;;;5039620;28;88329;-78
2023/03/05 01:12:37;;;;;;;1.52;1.00;;;5.20;99.90;;;;;;5021332;28;91353;-78
2023/03/05 01:15:05;;;;;;;5.32;1.48;;;5.20;99.90;;;;;;5039401;28;88581;-78
2023/03/05 01:17:33;;;;;;;3.78;1.50;;;5.20;99.90;;;;;;5004623;28;89334;-78
2023/03/05 01:20:00;;;;;;;5.22;1.52;;;5.10;99.90;;;;;;5004692;28;91459;-78
2023/03/05 01:22:27;;;;;;;2.47;1.45;;;5.10;99.90;;;;;;5020933;28;91404;-80
2023/03/05 01:24:55;;;;;;;4.72;1.25;;;5.10;99.90;;;;;;5004894;28;91397;-80
2023/03/05 01:27:22;;;;;;;2.83;1.48;;;5.10;99.90;;;;;;5004384;28;89437;-80
2023/03/05 01:29:49;;;;;;;3.70;1.60;;;5.10;99.90;;;;;;5021623;28;88380;-80
2023/03/05 01:32:17;;;;;;;4.05;1.30;;;5.10;99.90;;;;;;5020898;28;89590;-80
2023/03/05 01:34:44;;;;;;;3.80;1.00;;;5.20;99.90;;;;;;5020994;28;92015;-80
2023/03/05 01:37:11;;;;;;;3.22;1.27;;;5.20;99.90;;;;;;4988074;28;89387;-80
2023/03/05 01:39:38;;;;;;;5.13;1.15;;;5.20;99.90;;;;;;5004346;28;91188;-80
2023/03/05 01:42:06;;;;;;;4.60;2.08;;;5.20;99.90;;;;;;5021488;28;88799;-80
2023/03/05 01:44:33;;;;;;;3.03;1.05;;;5.20;99.90;;;;;;5021159;28;88499;-80
2023/03/05 01:47:00;;;;;;;6.40;1.33;;;5.30;99.90;;;;;;5039214;28;88053;-80
2023/03/05 01:49:37;;;;;;;5.60;1.52;;;5.30;99.90;;;;;;5004245;28;90524;-77
2023/03/05 01:52:16;;;;;;;5.03;1.20;;;5.40;99.90;;;;;;5039121;28;88810;-78
2023/03/05 01:54:46;;;;;;;5.55;1.20;;;5.40;99.90;;;;;;5037385;28;91071;-77
2023/03/05 01:57:35;;;;;;;5.47;1.15;;;5.40;99.90;;;;;;5037116;28;89392;-77
2023/03/05 02:00:12;;;;;;;6.57;1.23;;;5.40;99.90;;;;;;5020717;28;91456;-78
2023/03/05 02:02:42;;;;;;;6.47;1.30;;;5.40;99.90;;;;;;4994719;28;91727;-77
2023/03/05 02:05:16;;;;;;;5.13;1.40;;;5.40;99.90;;;;;;4981000;28;91594;-77
2023/03/05 02:07:44;;;;;;;5.72;1.08;;;5.50;99.90;;;;;;4981762;28;88422;-77
2023/03/05 02:10:18;;;;;;;5.35;1.17;;;5.50;99.90;;;;;;4980507;28;90942;-77
2023/03/05 02:12:47;;;;;;;4.25;1.20;;;5.50;99.90;;;;;;5014059;28;90449;-77
2023/03/05 02:15:16;;;;;;;3.80;0.90;;;5.40;99.90;;;;;;4997311;28;90990;-80
2023/03/05 02:17:44;;;;;;;4.30;1.10;;;5.40;99.90;;;;;;5013884;28;93023;-80
2023/03/05 02:20:17;;;;;;;5.00;1.23;;;5.40;99.90;;;;;;4980679;28;91407;-80
2023/03/05 02:22:44;;;;;;;4.03;2.13;;;5.40;99.90;;;;;;4996921;28;88807;-80
2023/03/05 02:25:19;;;;;;;4.50;1.30;;;5.30;99.90;;;;;;5013674;28;90895;-80
2023/03/05 02:27:57;;;;;;;3.00;1.52;;;5.30;99.90;;;;;;4997229;28;89100;-80
2023/03/05 02:30:26;;;;;;;5.10;1.35;;;5.20;99.90;;;;;;4996653;28;91049;-80
2023/03/05 02:32:53;;;;;;;2.90;0.90;;;5.10;99.90;;;;;;4980939;28;88951;-80
2023/03/05 02:35:21;;;;;;;8.93;1.27;;;5.00;99.90;;;;;;4964209;28;90950;-80
2023/03/05 02:37:48;;;;;;;2.58;0.98;;;5.00;99.90;;;;;;4996822;28;90452;-80
2023/03/05 02:40:16;;;;;;;5.35;0.88;;;5.00;99.90;;;;;;4997152;28;90802;-80
2023/03/05 02:42:43;;;;;;;5.80;1.25;;;5.00;99.90;;;;;;4980080;28;91423;-80
2023/03/05 02:45:12;;;;;;;3.13;1.50;;;5.00;99.90;;;;;;4964616;28;91325;-80
2023/03/05 02:47:40;;;;;;;2.40;1.00;;;5.00;99.90;;;;;;4979355;28;88808;-80
2023/03/05 02:50:09;;;;;;;4.03;1.60;;;5.00;99.90;;;;;;4996446;28;90774;-80
2023/03/05 02:52:37;;;;;;;9.52;1.88;;;5.00;99.90;;;;;;4979765;28;91441;-80
2023/03/05 02:55:08;;;;;;;5.97;1.27;;;5.00;99.90;;;;;;4980529;28;90998;-80
2023/03/05 02:57:35;;;;;;;3.22;1.13;;;5.00;99.90;;;;;;4996630;28;88501;-80
2023/03/05 03:00:03;;;;;;;2.10;1.15;;;5.00;99.90;;;;;;4963414;28;91299;-80
2023/03/05 03:02:31;;;;;;;5.40;1.40;;;5.00;99.90;;;;;;4983639;28;91705;-80
2023/03/05 03:05:01;;;;;;;3.92;1.52;;;5.00;99.90;;;;;;5016344;28;90389;-80
2023/03/05 03:07:28;;;;;;;2.70;1.13;;;4.90;99.90;;;;;;4996564;28;88012;-80
2023/03/05 03:09:55;;;;;;;4.97;1.50;;;4.90;99.90;;;;;;4996331;28;91091;-80
2023/03/05 03:12:22;;;;;;;3.78;1.20;;;4.90;99.90;;;;;;4979160;28;98880;-80
2023/03/05 03:14:49;;;;;;;3.85;1.38;;;4.90;99.90;;;;;;4979425;28;92139;-80
2023/03/05 03:17:17;;;;;;;6.90;1.52;;;4.90;99.90;;;;;;4979981;28;88617;-80
2023/03/05 03:19:44;;;;;;;4.50;1.45;;;4.80;99.90;;;;;;4997445;28;88448;-80
2023/03/05 03:22:13;;;;;;;3.78;1.40;;;4.80;99.90;;;;;;4980065;28;89029;-80
2023/03/05 03:24:42;;;;;;;4.25;1.50;;;4.70;99.90;;;;;;4997283;28;89526;-80
2023/03/05 03:27:09;;;;;;;4.47;1.60;;;4.70;99.90;;;;;;4996143;28;97290;-80
2023/03/05 03:29:37;;;;;;;3.22;1.35;;;4.70;99.90;;;;;;4996433;28;88567;-80
2023/03/05 03:32:04;;;;;;;6.20;2.13;;;4.70;99.90;;;;;;4996319;28;93126;-80
2023/03/05 03:34:31;;;;;;;7.07;2.30;;;4.70;99.90;;;;;;4979529;28;89539;-79
2023/03/05 03:36:58;;;;;;;4.25;1.65;;;4.60;99.90;;;;;;4995755;28;89066;-80
2023/03/05 03:39:25;;;;;;;6.93;1.63;;;4.70;99.90;;;;;;4997442;28;88028;-80
2023/03/05 03:41:52;;;;;;;6.95;1.80;;;4.70;99.90;;;;;;4963047;28;91480;-80
2023/03/05 03:44:20;;;;;;;4.18;1.25;;;4.70;99.90;;;;;;4979609;28;96681;-80
2023/03/05 03:46:49;;;;;;;4.80;1.48;;;4.70;99.90;;;;;;4979365;28;89365;-80
2023/03/05 03:49:24;;;;;;;3.35;1.30;;;4.70;99.90;;;;;;4996193;28;88476;-80
2023/03/05 03:51:53;;;;;;;3.53;1.40;;;4.80;99.90;;;;;;4995543;28;91988;-79
2023/03/05 03:54:21;;;;;;;4.18;1.60;;;4.80;99.90;;;;;;4963248;28;91490;-80
2023/03/05 03:56:48;;;;;;;5.20;1.35;;;4.80;99.90;;;;;;4979150;28;89879;-80
2023/03/05 03:59:15;;;;;;;4.63;1.38;;;4.90;99.90;;;;;;4996065;28;88494;-80
2023/03/05 04:01:42;;;;;;;3.67;1.10;;;4.90;99.90;;;;;;4978848;28;92205;-80
2023/03/05 04:04:11;;;;;;;9.15;1.50;;;4.90;99.90;;;;;;4995026;28;97109;-80
2023/03/05 04:06:38;;;;;;;4.72;1.33;;;4.90;99.90;;;;;;4995578;28;89383;-80
2023/03/05 04:09:07;;;;;;;6.95;1.58;;;4.90;99.90;;;;;;4997020;28;88593;-80
2023/03/05 04:11:35;;;;;;;6.07;1.42;;;4.80;99.90;;;;;;4979207;28;91493;-79
2023/03/05 04:14:03;;;;;;;3.63;1.30;;;4.80;99.90;;;;;;4995707;28;88856;-80
2023/03/05 04:16:30;;;;;;;3.70;1.33;;;4.70;99.90;;;;;;4995896;28;88563;-80
2023/03/05 04:18:57;;;;;;;4.43;1.38;;;4.70;99.90;;;;;;4997141;28;87410;-80
2023/03/05 04:21:24;;;;;;;2.63;1.20;;;4.70;99.90;;;;;;4996586;28;97201;-80
2023/03/05 04:23:51;;;;;;;3.70;1.38;;;4.60;99.90;;;;;;4978851;28;90141;-80
2023/03/05 04:26:17;;;;;;;6.93;1.50;;;4.60;99.90;;;;;;4999502;28;88969;-80
2023/03/05 04:28:47;;;;;;;8.80;1.83;;;4.60;99.90;;;;;;4982549;28;91148;-80
2023/03/05 04:31:14;;;;;;;3.38;1.48;;;4.50;99.90;;;;;;4982497;28;89452;-80
2023/03/05 04:33:41;;;;;;;2.97;1.38;;;4.50;99.90;;;;;;5000029;28;88773;-80
2023/03/05 04:36:08;;;;;;;3.83;1.30;;;4.40;99.90;;;;;;4998681;28;87944;-80
2023/03/05 04:38:35;;;;;;;5.97;1.35;;;4.40;99.90;;;;;;4982099;28;99782;-80
2023/03/05 04:41:02;;;;;;;4.80;1.38;;;4.40;99.90;;;;;;4965809;28;91785;-80
2023/03/05 04:43:29;;;;;;;7.40;1.70;;;4.50;99.90;;;;;;4982467;28;91174;-80
2023/03/05 04:45:55;;;;;;;6.15;1.35;;;4.50;99.90;;;;;;5015282;28;87964;-80
2023/03/05 04:48:22;;;;;;;4.43;1.40;;;4.50;99.90;;;;;;4998637;28;88375;-79
2023/03/05 04:50:49;;;;;;;4.90;1.17;;;4.50;99.90;;;;;;4981200;28;91964;-80
2023/03/05 04:53:16;;;;;;;2.28;1.10;;;4.50;99.90;;;;;;4998642;28;89628;-80
2023/03/05 04:55:43;;;;;;;2.20;1.13;;;4.50;99.90;;;;;;4981671;28;88577;-80
2023/03/05 04:58:10;;;;;;;5.30;1.23;;;4.60;99.90;;;;;;4981431;28;99531;-80
2023/03/05 05:00:38;;;;;;;4.45;0.95;;;4.60;99.90;;;;;;4965618;28;91767;-80
2023/03/05 05:03:04;;;;;;;6.35;1.65;;;4.60;99.90;;;;;;4999378;28;88733;-80
2023/03/05 05:05:31;;;;;;;4.95;1.25;;;4.50;99.90;;;;;;5022240;28;88001;-80
2023/03/05 05:07:58;;;;;;;3.63;1.10;;;4.50;99.90;;;;;;5005202;28;90899;-80
2023/03/05 05:10:26;;;;;;;4.85;1.45;;;4.50;99.90;;;;;;5004915;28;91423;-80
2023/03/05 05:12:53;;;;;;;2.70;0.93;;;4.50;99.90;;;;;;5021512;28;90973;-80
2023/03/05 05:15:20;;;;;;;4.78;1.10;;;4.50;99.90;;;;;;5004706;28;88770;-80
2023/03/05 05:17:47;;;;;;;1.45;1.00;;;4.50;99.90;;;;;;5004117;28;96500;-80
2023/03/05 05:20:16;;;;;;;6.28;1.10;;;4.40;99.90;;;;;;5021460;28;91276;-80
2023/03/05 05:22:43;;;;;;;4.28;1.15;;;4.40;99.90;;;;;;5004743;28;91795;-80
2023/03/05 05:25:10;;;;;;;2.25;0.93;;;4.40;99.90;;;;;;5021713;28;88146;-80
2023/03/05 05:27:38;;;;;;;3.25;1.13;;;4.40;99.90;;;;;;5004763;28;89573;-80
2023/03/05 05:30:06;;;;;;;6.50;1.33;;;4.30;99.90;;;;;;5039155;28;88888;-80
2023/03/05 05:32:34;;;;;;;4.03;1.30;;;4.40;99.90;;;;;;5021892;28;94370;-80
2023/03/05 05:35:01;;;;;;;2.75;1.23;;;4.30;99.90;;;;;;5020935;28;89404;-80
2023/03/05 05:37:28;;;;;;;3.95;1.20;;;4.40;99.90;;;;;;5004898;28;88406;-80
2023/03/05 05:39:55;;;;;;;4.07;1.15;;;4.40;99.90;;;;;;5038630;28;89501;-80
2023/03/05 05:42:24;;;;;;;3.22;1.30;;;4.40;99.90;;;;;;5021218;28;89188;-80
2023/03/05 05:44:51;;;;;;;2.05;1.20;;;4.40;99.90;;;;;;5038547;28;88552;-80
2023/03/05 05:47:18;;;;;;;2.35;1.00;;;4.40;99.90;;;;;;5037894;28;88402;-80
2023/03/05 05:49:45;;;;;;;5.00;1.70;;;4.40;99.90;;;;;;5021025;28;95006;-80
2023/03/05 05:52:12;;;;;;;2.53;1.20;;;4.40;99.90;;;;;;4987504;28;91554;-80
2023/03/05 05:54:39;;;;;;;3.75;1.23;;;4.40;99.90;;;;;;5004474;28;88760;-80
2023/03/05 05:57:06;;;;;;;7.55;1.63;;;4.40;99.90;;;;;;5004450;28;88312;-80
2023/03/05 05:59:33;;;;;;;4.03;1.48;;;4.40;99.90;;;;;;5020583;28;90847;-80
2023/03/05 06:02:00;;;;;;;5.60;1.65;;;4.40;99.90;;;;;;5020682;28;88801;-80
2023/03/05 06:04:27;;;;;;;9.25;1.08;;;4.40;99.90;;;;;;5019924;28;89445;-80
2023/03/05 06:06:54;;;;;;;4.97;1.50;;;4.50;99.90;;;;;;5020677;28;88399;-80
2023/03/05 06:09:21;;;;;;;3.95;1.40;;;4.50;99.90;;;;;;5020449;28;91314;-80
2023/03/05 06:11:49;;;;;;;6.05;1.42;;;4.50;99.90;;;;;;5020390;28;91363;-80
2023/03/05 06:14:16;;;;;;;3.70;1.20;;;4.50;99.90;;;;;;5003937;28;88610;-80
2023/03/05 06:16:43;;;;;;;3.88;1.48;;;4.50;99.90;;;;;;5038683;28;88879;-80
2023/03/05 06:19:14;;;;;;;3.08;1.00;;;4.50;99.90;;;;;;5020211;28;91217;-80
2023/03/05 06:21:44;;;;;;;2.63;1.27;;;4.50;99.90;;;;;;5039101;28;88682;-80
2023/03/05 06:24:11;;;;;;;7.25;1.40;;;4.50;99.90;;;;;;5020443;28;91126;-80
2023/03/05 06:26:38;;;;;;;4.60;1.63;;;4.50;99.90;;;;;;5020549;28;88300;-80
2023/03/05 06:29:05;;;;;;;1.20;0.88;;;4.40;99.90;;;;;;5019548;28;92356;-80
2023/03/05 06:31:32;;;;;;;5.78;1.00;;;4.40;99.90;;;;;;5020006;28;91127;-80
2023/03/05 06:34:01;;;;;;;3.63;1.10;;;4.30;99.90;;;;;;5004221;28;88138;-80
2023/03/05 06:36:28;;;;;;;3.33;1.17;;;4.30;99.90;;;;;;5003991;28;88501;-80
2023/03/05 06:38:56;;;;;;;4.30;1.10;;;4.30;99.90;;;;;;5019969;28;88863;-80
2023/03/05 06:41:28;;;;;;;4.65;0.95;;;4.20;99.90;;;;;;5038070;28;89610;-80
2023/03/05 06:43:56;;;;;;;3.45;1.05;;;4.30;99.90;;;;;;5020013;28;88061;-80
2023/03/05 06:46:27;;;;;;;2.90;1.17;;;4.30;99.90;;;;;;5004003;28;91294;-80
2023/03/05 06:48:57;;;;;;;4.95;1.02;;;4.30;99.90;;;;;;5037412;28;89251;-80
2023/03/05 06:51:31;;;;;;;3.83;1.00;;;4.30;99.90;;;;;;5003008;28;91098;-80
2023/03/05 06:54:06;;;;;;;1.60;0.80;;;4.40;99.90;;;;;;5020047;28;89175;-80
2023/03/05 06:56:38;;;;;;;1.88;0.68;;;4.40;99.90;;;;;;5020375;28;89189;-80
2023/03/05 06:59:05;;;;;;;1.55;0.75;;;4.40;99.90;;;;;;5003178;28;91355;-80
2023/03/05 07:01:33;;;;;;;2.03;0.70;;;4.50;99.90;;;;;;5037627;28;90621;-80
2023/03/05 07:04:01;;;;;;;3.83;0.63;;;4.50;99.90;;;;;;5019392;28;88881;-80
2023/03/05 07:06:32;;;;;;;5.07;1.13;;;4.60;99.90;;;;;;4986849;28;90962;-80
2023/03/05 07:09:00;;;;;;;0.60;0.60;;;4.60;99.90;;;;;;5019601;28;90475;-80
2023/03/05 07:11:28;;;;;;;4.32;0.90;;;4.70;99.90;;;;;;5019702;28;90942;-80
2023/03/05 07:13:55;;;;;;;2.08;1.02;;;4.70;99.90;;;;;;5036772;28;89114;-80
2023/03/05 07:16:24;;;;;;;3.75;0.88;;;4.80;99.90;;;;;;5036022;28;90999;-80
2023/03/05 07:18:51;;;;;;;2.92;1.00;;;4.90;99.90;;;;;;5002557;28;92497;-80
2023/03/05 07:21:21;;;;;;;3.28;0.90;;;4.90;99.90;;;;;;5037632;28;89368;-80
2023/03/05 07:23:49;;;;;;;1.10;0.80;;;5.00;99.90;;;;;;5019759;28;89740;-80
2023/03/05 07:26:16;;;;;;;3.45;1.25;;;5.10;99.90;;;;;;4986143;28;90949;-80
2023/03/05 07:28:43;;;;;;;1.73;1.00;;;5.20;99.90;;;;;;5019463;28;88955;-80
2023/03/05 07:31:19;;;;;;;1.75;1.10;;;5.30;99.90;;;;;;5019087;28;91116;-80
2023/03/05 07:33:48;;;;;;;2.95;1.10;;;5.40;99.90;;;;;;5019576;28;89613;-80
2023/03/05 07:36:16;;;;;;;2.00;1.10;;;5.50;99.90;;;;;;4986899;28;92345;-80
2023/03/05 07:38:43;;;;;;;4.57;1.20;;;5.70;99.90;;;;;;5002625;28;91502;-80
2023/03/05 07:41:13;;;;;;;1.85;0.70;;;5.90;99.90;;;;;;5019409;28;88654;-80
2023/03/05 07:43:40;;;;;;;4.15;1.00;;;6.10;99.90;;;;;;5002316;28;89682;-80
2023/03/05 07:46:10;;;;;;;4.80;1.15;;;6.20;99.90;;;;;;5018968;28;91149;-80
2023/03/05 07:48:37;;;;;;;3.45;1.20;;;6.30;99.90;;;;;;5019250;28;90382;-80
2023/03/05 07:51:07;;;;;;;2.25;1.10;;;6.40;99.90;;;;;;5002571;28;90936;-80
2023/03/05 07:53:34;;;;;;;2.97;1.48;;;6.50;99.90;;;;;;5019321;28;88160;-80
2023/03/05 07:56:01;;;;;;;4.75;1.75;;;6.60;99.90;;;;;;5037428;28;88619;-80
2023/03/05 07:58:28;;;;;;;3.35;1.58;;;6.80;99.90;;;;;;5002304;28;90883;-80
2023/03/05 08:00:55;;;;;;;5.45;1.20;;;6.90;99.90;;;;;;5005268;28;91433;-80
2023/03/05 08:03:22;;;;;;;4.03;1.30;;;7.10;99.90;;;;;;4986663;28;89168;-80
2023/03/05 08:05:49;;;;;;;4.75;2.30;;;7.30;99.90;;;;;;5040924;28;88084;-80
2023/03/05 08:08:16;;;;;;;2.10;1.10;;;7.50;99.90;;;;;;5021952;28;92290;-80
2023/03/05 08:10:43;;;;;;;3.22;1.25;;;7.60;99.90;;;;;;5005530;28;91944;-80
2023/03/05 08:13:10;;;;;;;7.53;3.55;;;7.70;99.90;;;;;;5022455;28;88107;-80
2023/03/05 08:15:37;;;;;;;4.57;3.10;;;7.90;99.90;;;;;;5022800;28;88345;-80
2023/03/05 08:18:05;;;;;;;3.72;1.92;;;8.20;99.90;;;;;;5005691;28;91469;-80
2023/03/05 08:20:35;;;;;;;3.72;1.75;;;8.60;99.90;;;;;;5005606;28;91595;-80
2023/03/05 08:23:02;;;;;;;4.50;1.95;;;9.00;99.90;;;;;;5022344;28;88468;-80
2023/03/05 08:25:30;;;;;;;3.20;2.10;;;9.30;99.90;;;;;;5005859;28;91148;-80
2023/03/05 08:27:57;;;;;;;3.58;1.52;;;9.50;99.90;;;;;;5005663;28;91445;-80
2023/03/05 08:30:26;;;;;;;2.70;1.17;;;9.80;99.90;;;;;;5040027;28;90420;-80
2023/03/05 08:32:53;;;;;;;2.83;0.88;;;10.00;99.90;;;;;;5040130;28;89287;-80
2023/03/05 08:35:21;;;;;;;2.47;1.20;;;10.00;99.90;;;;;;5040042;28;89761;-81
2023/03/05 08:37:48;;;;;;;5.22;1.08;;;9.90;99.90;;;;;;5005334;28;91548;-80
2023/03/05 08:40:16;;;;;;;3.20;1.13;;;9.80;99.90;;;;;;5005155;28;91123;-80
2023/03/05 08:42:44;;;;;;;5.43;1.73;;;9.70;99.90;;;;;;5005817;28;88069;-80
2023/03/05 08:45:12;;;;;;;3.60;1.40;;;9.50;99.90;;;;;;5005112;28;91062;-81
2023/03/05 08:47:39;;;;;;;1.98;1.27;;;9.30;99.90;;;;;;5021670;28;91611;-81
2023/03/05 08:50:07;;;;;;;4.30;1.60;;;9.20;99.90;;;;;;5022290;28;88895;-80
2023/03/05 08:52:34;;;;;;;2.00;1.10;;;9.20;99.90;;;;;;5021923;28;88029;-80
2023/03/05 08:55:01;;;;;;;4.63;1.20;;;9.10;99.90;;;;;;5005568;28;88106;-80
2023/03/05 08:57:28;;;;;;;4.75;1.33;;;9.00;99.90;;;;;;5037889;28;92604;-80
2023/03/05 08:59:55;;;;;;;6.47;1.65;;;9.00;99.90;;;;;;5005079;28;91835;-80
2023/03/05 09:02:22;;;;;;;5.40;1.63;;;9.00;99.90;;;;;;5005078;28;92254;-80
2023/03/05 09:04:49;;;;;;;4.85;1.55;;;9.00;99.90;;;;;;5004286;28;91418;-80
2023/03/05 09:07:15;;;;;;;2.53;1.00;;;8.90;99.90;;;;;;5039583;28;88573;-81
2023/03/05 09:09:42;;;;;;;3.53;1.00;;;8.90;99.90;;;;;;5021637;28;90986;-80
2023/03/05 09:12:12;;;;;;;3.53;1.13;;;9.00;99.90;;;;;;5004912;28;87983;-80
2023/03/05 09:14:39;;;;;;;4.22;1.30;;;9.00;99.90;;;;;;5005731;28;91049;-80
2023/03/05 09:17:07;;;;;;;5.30;1.30;;;8.90;99.90;;;;;;5021483;28;90131;-80
2023/03/05 09:19:34;;;;;;;6.10;1.33;;;8.90;99.90;;;;;;5039129;28;87997;-81
2023/03/05 09:22:01;;;;;;;6.80;2.35;;;8.90;99.90;;;;;;5004428;28;89140;-80
2023/03/05 09:24:28;;;;;;;4.15;1.10;;;9.00;99.90;;;;;;5039235;28;88244;-80
2023/03/05 09:26:59;;;;;;;5.25;1.30;;;8.90;99.90;;;;;;5004762;28;91595;-80
2023/03/05 09:29:26;;;;;;;6.68;1.85;;;8.90;99.90;;;;;;5005058;28;91589;-81
2023/03/05 09:31:53;;;;;;;7.28;1.58;;;8.90;99.90;;;;;;5004788;28;88028;-80
2023/03/05 09:34:21;;;;;;;3.40;1.33;;;8.90;99.90;;;;;;5021373;28;88369;-80
2023/03/05 09:36:48;;;;;;;3.30;1.20;;;8.90;99.90;;;;;;5021713;28;88838;-80
2023/03/05 09:39:15;;;;;;;5.00;1.08;;;9.10;99.90;;;;;;4988375;28;91122;-80
2023/03/05 09:42:06;;;;;;;5.20;1.17;;;9.20;99.90;;;;;;5039208;28;88100;-80
2023/03/05 09:44:51;;;;;;;4.40;1.20;;;9.30;99.90;;;;;;5004824;28;91266;-80
2023/03/05 09:47:42;;;;;;;2.30;0.95;;;9.40;99.90;;;;;;5020714;28;90579;-80
2023/03/05 09:50:33;;;;;;;3.38;1.42;;;9.50;99.90;;;;;;5037635;28;91741;-80
2023/03/05 09:53:25;;;;;;;8.90;1.83;;;9.40;99.90;;;;;;5038861;28;88275;-80
2023/03/05 09:55:59;;;;;;;6.70;1.52;;;9.50;99.90;;;;;;5039014;28;89395;-80
2023/03/05 09:58:38;;;;;;;2.22;1.30;;;9.60;99.90;;;;;;5004161;28;91023;-80
2023/03/05 10:01:21;;;;;;;5.70;1.23;;;9.60;99.90;;;;;;5020662;28;91198;-81
2023/03/05 10:04:05;;;;;;;8.90;1.40;;;9.60;99.90;;;;;;5017161;28;88034;-80
2023/03/05 10:06:36;;;;;;;2.30;1.20;;;9.80;99.90;;;;;;5004046;28;90999;-80
2023/03/05 10:09:09;;;;;;;4.57;1.27;;;9.90;99.90;;;;;;4997342;28;91495;-80
2023/03/05 10:11:38;;;;;;;4.33;1.23;;;10.10;99.90;;;;;;4996982;28;89982;-81
2023/03/05 10:14:12;;;;;;;1.75;0.77;;;10.20;99.90;;;;;;4997118;28;89087;-80
2023/03/05 10:16:45;;;;;;;2.75;1.10;;;10.10;99.90;;;;;;4997165;28;88745;-80
2023/03/05 10:19:17;;;;;;;4.55;0.90;;;9.90;99.90;;;;;;4997206;28;91784;-80
2023/03/05 10:22:05;;;;;;;5.55;0.80;;;9.80;99.90;;;;;;4997793;28;89632;-81
2023/03/05 10:24:53;;;;;;;1.67;0.70;;;9.80;99.90;;;;;;4956905;28;89044;-81
2023/03/05 10:27:48;;;;;;;2.55;0.90;;;9.80;99.90;;;;;;4997542;28;88063;-81
2023/03/05 10:30:37;;;;;;;4.55;1.40;;;9.90;99.90;;;;;;4997336;28;88944;-80
2023/03/05 10:33:14;;;;;;;2.78;1.20;;;10.10;99.90;;;;;;4997112;28;91343;-78
2023/03/05 10:36:11;;;;;;;3.13;0.80;;;10.40;99.90;;;;;;4998365;28;88543;-80
2023/03/05 10:39:00;;;;;;;1.25;0.60;;;10.50;99.90;;;;;;4996451;28;89823;-80
2023/03/05 10:41:43;;;;;;;4.47;0.88;;;10.50;99.90;;;;;;4996043;28;92223;-80
2023/03/05 10:44:31;;;;;;;2.13;0.60;;;10.30;99.90;;;;;;4996980;28;91649;-80
2023/03/05 10:47:00;;;;;;;2.30;0.82;;;10.10;99.90;;;;;;5013698;28;88040;-80
2023/03/05 10:49:36;;;;;;;1.17;0.65;;;10.10;99.90;;;;;;4979826;28;89884;-80
2023/03/05 10:52:02;;;;;;;2.90;0.80;;;10.30;99.90;;;;;;4997871;28;89776;-81
2023/03/05 10:54:34;;;;;;;3.45;0.93;;;10.30;99.90;;;;;;4996644;28;88568;-80
2023/03/05 10:57:14;;;;;;;3.13;1.98;;;10.40;99.90;;;;;;4996613;28;89414;-81
2023/03/05 11:00:19;;;;;;;2.80;1.52;;;10.20;99.90;;;;;;4998302;28;88718;-80
2023/03/05 11:02:55;;;;;;;;;;;10.30;99.90;;;;;;4996764;28;91714;-80
2023/03/05 11:05:39;;;;;;;4.53;0.98;;;10.10;99.90;;;;;;5002587;28;88297;-80
2023/03/05 11:08:27;;;;;;;5.22;1.10;;;10.20;99.90;;;;;;5019980;28;88735;-81
2023/03/05 11:11:16;;;;;;;4.03;1.42;;;10.30;99.90;;;;;;5019538;28;91245;-81
2023/03/05 11:13:55;;;;;;;3.58;0.88;;;10.30;99.90;;;;;;5002841;28;91842;-81
2023/03/05 11:16:25;;;;;;;3.92;1.10;;;10.40;99.90;;;;;;5003042;28;91958;-80
2023/03/05 11:19:31;;;;;;;2.60;0.90;;;10.40;99.90;;;;;;5019296;28;89189;-80
2023/03/05 11:22:20;;;;;;;5.18;1.30;;;10.60;99.90;;;;;;5037892;28;88643;-80
2023/03/05 11:25:03;;;;;;;5.45;1.10;;;10.70;99.90;;;;;;5037633;28;88841;-80
2023/03/05 11:27:34;;;;;;;3.47;1.25;;;10.80;99.90;;;;;;5020099;28;91167;-81
2023/03/05 11:30:02;;;;;;;3.05;1.30;;;10.50;99.90;;;;;;5002926;28;89411;-81
2023/03/05 11:32:30;;;;;;;3.85;2.20;;;10.30;99.90;;;;;;5037309;28;88773;-79
2023/03/05 11:34:57;;;;;;;5.03;0.80;;;10.20;99.90;;;;;;5005266;28;90300;-78
2023/03/05 11:37:33;;;;;;;4.00;1.00;;;9.90;99.90;;;;;;5006718;28;89251;-78
2023/03/05 11:40:09;;;;;;;2.92;1.05;;;9.80;99.90;;;;;;5006420;28;89176;-81
2023/03/05 11:42:38;;;;;;;2.72;0.80;;;9.60;99.90;;;;;;5022736;28;91062;-81
2023/03/05 11:45:15;;;;;;;4.32;1.13;;;9.50;99.90;;;;;;5022757;28;91572;-80
2023/03/05 11:47:48;;;;;;;5.15;1.20;;;9.50;99.90;;;;;;5022667;28;90940;-81
2023/03/05 11:50:15;;;;;;;2.17;1.03;;;9.60;99.90;;;;;;5040546;28;88072;-80
2023/03/05 11:53:08;;;;;;;5.15;1.20;;;9.90;99.90;;;;;;5023371;28;88353;-80
2023/03/05 11:56:01;;;;;;;5.55;1.08;;;10.00;99.90;;;;;;5033595;28;89446;-80
2023/03/05 11:58:40;;;;;;;1.30;1.17;;;10.10;99.90;;;;;;5022517;28;91071;-81
2023/03/05 12:01:28;;;;;;;5.90;1.02;;;10.10;99.90;;;;;;5005634;28;89851;-81
2023/03/05 12:03:55;;;;;;;3.10;1.40;;;10.10;99.90;;;;;;5040498;28;88326;-80
2023/03/05 12:06:27;;;;;;;5.68;1.50;;;10.10;99.90;;;;;;5040341;28;88827;-80
2023/03/05 12:08:58;;;;;;;3.03;1.50;;;10.10;99.90;;;;;;5022467;28;90232;-81
2023/03/05 12:11:31;;;;;;;4.05;1.30;;;10.00;99.20;;;;;;5040969;28;88554;-80
2023/03/05 12:14:08;;;;;;;2.90;0.75;;;10.00;99.50;;;;;;5022759;28;88456;-80
2023/03/05 12:16:44;;;;;;;4.47;0.80;;;10.20;99.90;;;;;;5022711;28;88929;-81
2023/03/05 12:19:20;;;;;;;3.78;0.70;;;10.30;99.00;;;;;;5022893;28;88680;-80
2023/03/05 12:21:52;;;;;;;4.65;1.15;;;10.40;99.20;;;;;;5022629;28;87944;-80
2023/03/05 12:24:25;;;;;;;3.20;0.70;;;10.50;99.00;;;;;;5022531;28;91015;-80
2023/03/05 12:27:03;;;;;;;2.65;0.70;;;10.60;98.30;;;;;;5022486;28;89989;-80
2023/03/05 12:29:36;;;;;;;2.97;0.80;;;10.70;98.70;;;;;;5005568;28;90862;-80
2023/03/05 12:32:05;;;;;;;2.30;0.57;;;10.90;98.70;;;;;;5005348;28;89038;-80
2023/03/05 12:34:41;;;;;;;3.28;1.10;;;11.10;97.70;;;;;;5021934;28;90957;-80
2023/03/05 12:37:11;;;;;;;3.47;1.05;;;11.20;98.00;;;;;;5022080;28;91668;-80
2023/03/05 12:39:46;;;;;;;3.30;0.88;;;11.20;97.90;;;;;;5022152;28;88121;-81
2023/03/05 12:42:28;;;;;;;3.22;0.80;;;11.00;98.10;;;;;;5022323;28;88093;-81
2023/03/05 12:45:11;;;;;;;1.63;0.73;;;10.70;98.50;;;;;;5005292;27;90958;-81
2023/03/05 12:47:38;;;;;;;2.50;0.77;;;10.30;98.80;;;;;;5040016;28;89290;-80
2023/03/05 12:50:28;;;;;;;2.92;0.90;;;10.00;99.30;;;;;;5021938;28;88020;-81
2023/03/05 12:52:57;;;;;;;3.47;1.00;;;9.80;98.90;;;;;;5039831;28;88853;-80
2023/03/05 12:55:32;;;;;;;5.43;1.00;;;9.90;99.90;;;;;;5021813;28;91068;-80
2023/03/05 12:58:11;;;;;;;1.65;0.80;;;10.10;99.30;;;;;;5021867;28;88876;-80
2023/03/05 13:01:03;;;;;;;3.10;1.00;;;10.10;98.80;;;;;;5040161;28;88640;-81
2023/03/05 13:03:34;;;;;;;2.40;0.93;;;10.10;98.50;;;;;;5040110;28;88041;-81
2023/03/05 13:06:06;;;;;;;3.65;1.35;;;9.90;98.40;;;;;;5011888;28;88305;-81
2023/03/05 13:08:36;;;;;;;3.15;1.25;;;9.90;98.40;;;;;;4997428;28;93315;-80
2023/03/05 13:11:03;;;;;;;3.88;1.13;;;9.80;98.70;;;;;;4997423;28;92990;-80
2023/03/05 13:13:34;;;;;;;2.60;0.68;;;9.80;99.30;;;;;;4996013;28;92975;-80